Time;durP1;ratioP1;P1;durP2;ratioP2;P2;SDS_P1;SDS_P2;PMS_P1;PMS_P2;Temp;Humidity;BMP_temperature;BMP_pressure;BME280_temperature;BME280_humidity;BME280_pressure;Samples;Min_cycle;Max_cycle;Signal;HPM_P1;HPM_P2
2021/09/24 00:00:27;;;;;;;;;;;;;;;21.84;30.52;98119.94;4906039;29;629;-79
2021/09/24 00:02:52;;;;;;;;;;;;;;;21.90;30.19;98108.06;4906103;29;648;-80
2021/09/24 00:05:18;;;;;;;;;;;;;;;21.97;29.99;98102.25;4905828;29;882;-79
2021/09/24 00:07:43;;;;;;;;;;;;;;;21.95;29.95;98108.31;4904755;29;995;-79
2021/09/24 00:10:09;;;;;;;;;;;;;;;21.99;30.13;98102.56;4904814;29;851;-79
2021/09/24 00:12:34;;;;;;;;;;;;;;;21.82;30.29;98111.09;4905152;29;850;-79
2021/09/24 00:15:00;;;;;;;;;;;;;;;22.07;29.70;98101.13;4905737;29;596;-79
2021/09/24 00:17:25;;;;;;;;;;;;;;;21.93;29.92;98105.16;4905652;29;1979;-79
2021/09/24 00:19:51;;;;;;;;;;;;;;;21.90;30.03;98106.03;4905874;29;696;-79
2021/09/24 00:22:16;;;;;;;;;;;;;;;21.90;30.27;98106.03;4905158;29;999;-79
2021/09/24 00:24:41;;;;;;;;;;;;;;;22.11;29.68;98099.03;4905391;29;946;-79
2021/09/24 00:27:07;;;;;;;;;;;;;;;22.00;29.74;98098.50;4905311;29;819;-79
2021/09/24 00:29:32;;;;;;;;;;;;;;;21.98;29.82;98096.13;4904667;29;1154;-79
2021/09/24 00:31:58;;;;;;;;;;;;;;;21.79;30.27;98091.34;4905380;29;605;-79
2021/09/24 00:34:23;;;;;;;;;;;;;;;21.87;30.16;98092.78;4905354;29;728;-80
2021/09/24 00:36:49;;;;;;;;;;;;;;;21.87;29.95;98086.31;4905053;29;1919;-79
2021/09/24 00:39:14;;;;;;;;;;;;;;;21.81;30.26;98088.88;4905034;29;924;-79
2021/09/24 00:41:39;;;;;;;;;;;;;;;22.22;30.38;98079.69;4905172;29;910;-79
2021/09/24 00:44:05;;;;;;;;;;;;;;;22.48;30.93;98082.63;4905386;29;643;-79
2021/09/24 00:46:30;;;;;;;;;;;;;;;22.51;30.96;98073.22;4905208;29;661;-79
2021/09/24 00:48:56;;;;;;;;;;;;;;;22.31;31.10;98082.69;4905112;29;712;-79
2021/09/24 00:51:22;;;;;;;;;;;;;;;22.14;30.92;98069.03;4904198;29;948;-79
2021/09/24 00:53:47;;;;;;;;;;;;;;;22.20;30.45;98079.34;4904694;29;1105;-78
2021/09/24 00:56:12;;;;;;;;;;;;;;;22.07;30.32;98065.13;4904989;29;955;-79
2021/09/24 00:58:38;;;;;;;;;;;;;;;22.00;30.66;98070.16;4905024;29;2010;-79
2021/09/24 01:01:03;;;;;;;;;;;;;;;22.01;30.57;98057.59;4905466;29;739;-79
2021/09/24 01:03:29;;;;;;;;;;;;;;;22.15;30.74;98062.91;4904993;29;685;-80
2021/09/24 01:05:54;;;;;;;;;;;;;;;22.00;30.86;98056.00;4904627;29;1070;-79
2021/09/24 01:08:20;;;;;;;;;;;;;;;22.07;30.67;98053.78;4904028;29;822;-79
2021/09/24 01:10:45;;;;;;;;;;;;;;;22.08;30.69;98051.75;4904838;29;1088;-79
2021/09/24 01:13:11;;;;;;;;;;;;;;;22.00;30.82;98053.16;4904879;29;683;-79
2021/09/24 01:15:36;;;;;;;;;;;;;;;21.95;30.75;98051.66;4904283;29;646;-79
2021/09/24 01:18:02;;;;;;;;;;;;;;;21.99;30.55;98041.03;4904803;29;1978;-79
2021/09/24 01:20:27;;;;;;;;;;;;;;;21.95;30.57;98039.53;4904473;29;1082;-79
2021/09/24 01:22:53;;;;;;;;;;;;;;;21.96;30.80;98024.91;4904647;29;942;-79
2021/09/24 01:25:19;;;;;;;;;;;;;;;21.87;30.71;98032.50;4904735;29;1015;-79
2021/09/24 01:27:44;;;;;;;;;;;;;;;21.91;30.54;98027.50;4904742;29;700;-79
2021/09/24 01:30:10;;;;;;;;;;;;;;;21.80;30.88;98034.25;4904685;29;703;-79
2021/09/24 01:32:35;;;;;;;;;;;;;;;21.88;30.62;98022.75;4904708;29;759;-79
2021/09/24 01:35:01;;;;;;;;;;;;;;;21.76;30.92;98016.59;4903958;29;927;-79
2021/09/24 01:37:27;;;;;;;;;;;;;;;22.00;30.26;98030.50;4906888;29;1970;-79
2021/09/24 01:39:52;;;;;;;;;;;;;;;21.96;30.26;98018.47;4907842;29;1068;-79
2021/09/24 01:42:21;;;;;;;;;;;;;;;21.91;30.04;98019.00;4908503;29;644;-79
2021/09/24 01:44:47;;;;;;;;;;;;;;;21.44;30.90;98014.56;4907809;29;735;-79
2021/09/24 01:47:12;;;;;;;;;;;;;;;21.78;30.61;98022.59;4908631;29;715;-79
2021/09/24 01:49:37;;;;;;;;;;;;;;;21.99;30.08;98028.91;4907484;29;1009;-79
2021/09/24 01:52:03;;;;;;;;;;;;;;;22.19;30.63;98026.75;4907989;29;948;-79
2021/09/24 01:54:29;;;;;;;;;;;;;;;22.36;30.83;98031.09;4908078;29;987;-79
2021/09/24 01:56:54;;;;;;;;;;;;;;;22.56;30.82;98027.28;4907615;29;1913;-79
2021/09/24 01:59:19;;;;;;;;;;;;;;;22.45;30.84;98024.00;4908193;29;656;-79
2021/09/24 02:01:45;;;;;;;;;;;;;;;22.31;30.59;98023.16;4908140;29;629;-79
2021/09/24 02:04:10;;;;;;;;;;;;;;;22.00;30.67;98024.84;4907760;29;931;-79
2021/09/24 02:06:36;;;;;;;;;;;;;;;22.07;30.69;98030.28;4907915;29;916;-79
2021/09/24 02:09:01;;;;;;;;;;;;;;;21.93;30.91;98036.38;4907907;29;972;-79
2021/09/24 02:11:27;;;;;;;;;;;;;;;22.02;30.60;98034.50;4908038;29;676;-79
2021/09/24 02:13:52;;;;;;;;;;;;;;;22.11;30.63;98036.69;4908103;29;638;-79
2021/09/24 02:16:17;;;;;;;;;;;;;;;22.02;30.72;98028.00;4907821;29;855;-79
2021/09/24 02:18:43;;;;;;;;;;;;;;;22.03;30.91;98023.94;4907500;29;1968;-79
2021/09/24 02:21:08;;;;;;;;;;;;;;;21.92;31.02;98027.09;4907009;29;881;-79
2021/09/24 02:23:34;;;;;;;;;;;;;;;21.90;31.14;98020.25;4907554;29;1000;-80
2021/09/24 02:25:59;;;;;;;;;;;;;;;21.96;30.96;98024.13;4907718;29;625;-79
2021/09/24 02:28:25;;;;;;;;;;;;;;;21.92;31.01;98023.47;4907650;29;712;-79
2021/09/24 02:30:50;;;;;;;;;;;;;;;21.87;31.24;98026.84;4907708;29;680;-79
2021/09/24 02:33:16;;;;;;;;;;;;;;;21.89;30.88;98025.13;4907209;29;1136;-79
2021/09/24 02:35:41;;;;;;;;;;;;;;;22.01;30.92;98027.22;4907329;29;942;-79
2021/09/24 02:38:07;;;;;;;;;;;;;;;22.03;30.85;98029.63;4906692;29;1967;-79
2021/09/24 02:40:32;;;;;;;;;;;;;;;21.93;30.84;98030.72;4907457;29;664;-79
2021/09/24 02:42:58;;;;;;;;;;;;;;;21.96;30.55;98021.28;4906782;29;597;-79
2021/09/24 02:45:23;;;;;;;;;;;;;;;21.71;31.14;98025.63;4907671;29;650;-80
2021/09/24 02:47:49;;;;;;;;;;;;;;;21.85;30.80;98028.06;4906835;29;947;-79
2021/09/24 02:50:14;;;;;;;;;;;;;;;21.93;30.59;98025.03;4906140;29;982;-79
2021/09/24 02:52:40;;;;;;;;;;;;;;;21.98;30.27;98022.47;4907101;29;1002;-79
2021/09/24 02:55:06;;;;;;;;;;;;;;;21.94;30.67;98023.78;4907217;29;1014;-80
2021/09/24 02:57:31;;;;;;;;;;;;;;;21.85;30.54;98036.56;4907115;29;1970;-79
2021/09/24 02:59:56;;;;;;;;;;;;;;;21.84;30.71;98029.31;4907655;29;644;-79
2021/09/24 03:02:22;;;;;;;;;;;;;;;21.78;30.43;98013.31;4906850;29;1058;-80
2021/09/24 03:04:47;;;;;;;;;;;;;;;22.12;31.20;98026.16;4906132;29;965;-79
2021/09/24 03:07:13;;;;;;;;;;;;;;;22.47;31.07;98021.50;4906874;29;753;-80
2021/09/24 03:09:38;;;;;;;;;;;;;;;22.67;31.07;98016.41;4906304;29;672;-80
2021/09/24 03:12:04;;;;;;;;;;;;;;;22.24;30.98;98008.41;4907074;29;736;-79
2021/09/24 03:14:30;;;;;;;;;;;;;;;22.16;30.78;98004.19;4906165;29;856;-80
2021/09/24 03:16:55;;;;;;;;;;;;;;;22.12;30.49;98009.94;4906521;29;1966;-80
2021/09/24 03:19:20;;;;;;;;;;;;;;;22.12;30.66;98004.28;4906639;29;948;-79
2021/09/24 03:21:49;;;;;;;;;;;;;;;22.11;30.63;97997.03;4905879;29;989;-79
2021/09/24 03:24:15;;;;;;;;;;;;;;;22.07;30.59;97996.28;4906046;29;621;-79
2021/09/24 03:26:40;;;;;;;;;;;;;;;22.04;30.81;97991.53;4906622;29;640;-79
2021/09/24 03:29:06;;;;;;;;;;;;;;;22.10;30.77;97995.41;4907096;29;663;-80
2021/09/24 03:31:31;;;;;;;;;;;;;;;21.99;31.07;97994.91;4905530;29;1259;-79
2021/09/24 03:33:57;;;;;;;;;;;;;;;21.95;31.13;97988.56;4905861;29;821;-79
2021/09/24 03:36:22;;;;;;;;;;;;;;;21.97;31.13;97989.72;4906407;29;912;-79
2021/09/24 03:38:48;;;;;;;;;;;;;;;22.12;31.11;97992.94;4906363;29;1974;-79
2021/09/24 03:41:13;;;;;;;;;;;;;;;22.16;30.69;97987.97;4906449;29;659;-79
2021/09/24 03:43:38;;;;;;;;;;;;;;;22.06;30.83;97989.03;4906481;29;675;-80
2021/09/24 03:46:04;;;;;;;;;;;;;;;22.04;30.94;97991.53;4906100;29;943;-79
2021/09/24 03:48:29;;;;;;;;;;;;;;;21.53;31.89;97988.47;4905349;29;931;-79
2021/09/24 03:50:55;;;;;;;;;;;;;;;21.93;30.99;97996.72;4906140;29;1126;-79
2021/09/24 03:53:20;;;;;;;;;;;;;;;21.97;31.00;97991.75;4905135;29;1343;-79
2021/09/24 03:55:47;;;;;;;;;;;;;;;22.00;30.76;97988.00;4905878;29;1305;-79
2021/09/24 03:58:12;;;;;;;;;;;;;;;21.96;31.07;97981.63;4906023;29;1902;-80
2021/09/24 04:00:38;;;;;;;;;;;;;;;22.09;30.38;97982.47;4904976;29;1027;-79
2021/09/24 04:03:03;;;;;;;;;;;;;;;22.05;30.64;97981.78;4905533;29;1428;-79
2021/09/24 04:05:29;;;;;;;;;;;;;;;22.03;30.60;97982.25;4905908;29;919;-79
2021/09/24 04:07:54;;;;;;;;;;;;;;;22.04;30.36;97977.38;4906510;29;702;-79
2021/09/24 04:10:19;;;;;;;;;;;;;;;22.07;30.23;97976.44;4905930;29;732;-79
2021/09/24 04:12:45;;;;;;;;;;;;;;;21.91;30.70;97970.84;4905411;29;716;-79
2021/09/24 04:15:10;;;;;;;;;;;;;;;22.02;30.64;97971.34;4905220;29;1432;-79
2021/09/24 04:17:36;;;;;;;;;;;;;;;22.00;30.58;97976.66;4905399;29;1903;-80
2021/09/24 04:20:01;;;;;;;;;;;;;;;21.93;30.40;97976.88;4905659;29;953;-80
2021/09/24 04:22:27;;;;;;;;;;;;;;;21.90;30.30;97967.22;4905549;29;635;-79
2021/09/24 04:24:52;;;;;;;;;;;;;;;21.94;30.51;97976.44;4904770;29;1397;-79
2021/09/24 04:27:18;;;;;;;;;;;;;;;21.86;30.63;97980.69;4904463;29;961;-80
2021/09/24 04:29:43;;;;;;;;;;;;;;;21.88;30.66;97966.09;4904920;29;1345;-80
2021/09/24 04:32:08;;;;;;;;;;;;;;;21.88;30.57;97978.22;4905037;29;1345;-80
2021/09/24 04:34:34;;;;;;;;;;;;;;;21.80;30.36;97966.28;4905429;29;859;-80
2021/09/24 04:36:59;;;;;;;;;;;;;;;21.82;30.58;97963.81;4905308;29;1907;-80
2021/09/24 04:39:25;;;;;;;;;;;;;;;21.88;30.36;97966.09;4905320;29;693;-80
2021/09/24 04:41:51;;;;;;;;;;;;;;;21.96;30.34;97967.47;4905274;29;1376;-80
2021/09/24 04:44:16;;;;;;;;;;;;;;;21.82;30.13;97960.97;4904965;29;951;-80
2021/09/24 04:46:45;;;;;;;;;;;;;;;21.84;30.21;97961.31;4905333;29;903;-80
2021/09/24 04:49:11;;;;;;;;;;;;;;;20.62;30.14;97742.31;4905203;29;950;-79
2021/09/24 04:51:37;;;;;;;;;;;;;;;22.16;29.87;97947.50;4905531;29;676;-80
2021/09/24 04:54:02;;;;;;;;;;;;;;;22.20;29.60;97946.16;4904955;29;1302;-79
2021/09/24 04:56:28;;;;;;;;;;;;;;;21.94;30.04;97942.44;4903230;29;1374;-79
2021/09/24 04:58:53;;;;;;;;;;;;;;;21.93;30.15;97945.72;4904109;29;1914;-80
2021/09/24 05:01:18;;;;;;;;;;;;;;;21.96;29.89;97937.09;4904409;29;1190;-79
2021/09/24 05:03:44;;;;;;;;;;;;;;;21.87;29.96;97942.66;4903771;29;1293;-78
2021/09/24 05:06:09;;;;;;;;;;;;;;;22.01;29.69;97947.09;4904325;29;1441;-80
2021/09/24 05:08:35;;;;;;;;;;;;;;;22.02;29.93;97945.84;4904906;29;683;-79
2021/09/24 05:11:00;;;;;;;;;;;;;;;21.89;30.01;97940.16;4904508;29;1431;-79
2021/09/24 05:13:26;;;;;;;;;;;;;;;21.95;29.97;97931.91;4923062;29;988;-79
2021/09/24 05:15:51;;;;;;;;;;;;;;;22.14;30.02;97933.78;4923617;29;946;-79
2021/09/24 05:18:16;;;;;;;;;;;;;;;22.38;30.70;97927.78;4923604;29;1903;-79
2021/09/24 05:20:42;;;;;;;;;;;;;;;22.48;30.90;97933.13;4923789;29;660;-80
2021/09/24 05:23:07;;;;;;;;;;;;;;;22.17;31.23;97932.06;4910532;29;1403;-80
2021/09/24 05:25:33;;;;;;;;;;;;;;;22.06;30.99;97923.88;4904762;29;797;-80
2021/09/24 05:27:58;;;;;;;;;;;;;;;22.03;31.01;97913.44;4904427;29;971;-80
2021/09/24 05:30:24;;;;;;;;;;;;;;;22.04;31.10;97920.69;4904521;29;873;-80
2021/09/24 05:32:49;;;;;;;;;;;;;;;21.92;31.12;97927.16;4904470;29;1365;-79
2021/09/24 05:35:15;;;;;;;;;;;;;;;21.91;30.99;97914.19;4904727;29;720;-80
2021/09/24 05:37:41;;;;;;;;;;;;;;;21.88;30.92;97915.13;4904741;29;1907;-80
2021/09/24 05:40:07;;;;;;;;;;;;;;;21.95;30.96;97917.72;4904795;29;612;-80
2021/09/24 05:42:33;;;;;;;;;;;;;;;22.23;30.51;97919.75;4902718;29;1395;-80
2021/09/24 05:44:58;;;;;;;;;;;;;;;22.07;30.83;97911.28;4904212;29;1450;-79
2021/09/24 05:47:24;;;;;;;;;;;;;;;21.94;30.81;97918.97;4904603;29;1092;-79
2021/09/24 05:49:49;;;;;;;;;;;;;;;21.72;31.29;97930.94;4904578;29;593;-80
2021/09/24 05:52:15;;;;;;;;;;;;;;;21.97;30.75;97932.25;4904504;29;680;-79
2021/09/24 05:54:40;;;;;;;;;;;;;;;21.88;30.69;97937.78;4904270;29;1397;-80
2021/09/24 05:57:05;;;;;;;;;;;;;;;21.96;30.74;97933.47;4903058;29;1983;-80
2021/09/24 05:59:31;;;;;;;;;;;;;;;21.99;30.45;97932.59;4904262;29;905;-80
2021/09/24 06:01:56;;;;;;;;;;;;;;;20.69;30.25;97719.50;4904419;29;1050;-80
2021/09/24 06:04:22;;;;;;;;;;;;;;;21.94;30.73;97933.13;4904302;29;1417;-79
2021/09/24 06:06:47;;;;;;;;;;;;;;;22.01;30.50;97930.09;4904178;29;1546;-80
2021/09/24 06:09:13;;;;;;;;;;;;;;;22.05;30.42;97936.44;4904399;29;624;-80
2021/09/24 06:11:38;;;;;;;;;;;;;;;22.03;30.24;97948.25;4903583;29;999;-80
2021/09/24 06:14:04;;;;;;;;;;;;;;;22.02;30.44;97951.50;4904101;29;901;-80
2021/09/24 06:16:29;;;;;;;;;;;;;;;21.98;30.25;97959.34;4903597;29;1008;-80
2021/09/24 06:18:55;;;;;;;;;;;;;;;21.93;30.65;97962.72;4904315;29;1915;-80
2021/09/24 06:21:21;;;;;;;;;;;;;;;21.90;30.70;97955.09;4904379;29;1408;-80
2021/09/24 06:23:47;;;;;;;;;;;;;;;21.39;31.34;97946.38;4905556;29;617;-79
2021/09/24 06:26:13;;;;;;;;;;;;;;;21.76;30.77;97948.63;4906795;29;911;-79
2021/09/24 06:28:38;;;;;;;;;;;;;;;21.98;30.47;97945.97;4907573;29;846;-80
2021/09/24 06:31:04;;;;;;;;;;;;;;;22.15;30.01;97946.72;4907297;29;1158;-78
2021/09/24 06:33:29;;;;;;;;;;;;;;;21.95;30.12;97943.22;4906691;29;792;-79
2021/09/24 06:35:55;;;;;;;;;;;;;;;21.91;30.31;97953.84;4907730;29;643;-79
2021/09/24 06:38:20;;;;;;;;;;;;;;;21.93;30.17;97945.72;4907161;29;1980;-79
2021/09/24 06:40:45;;;;;;;;;;;;;;;21.88;30.33;97949.09;4907258;29;915;-79
2021/09/24 06:43:11;;;;;;;;;;;;;;;21.79;30.35;97953.38;4907499;29;947;-80
2021/09/24 06:45:37;;;;;;;;;;;;;;;21.93;30.34;97954.22;4906844;29;631;-80
2021/09/24 06:48:03;;;;;;;;;;;;;;;21.89;30.14;97951.47;4907377;29;632;-80
2021/09/24 06:50:28;;;;;;;;;;;;;;;22.11;29.72;97946.00;4906654;29;1374;-79
2021/09/24 06:52:54;;;;;;;;;;;;;;;21.92;29.87;97944.13;4906901;29;1257;-78
2021/09/24 06:55:22;;;;;;;;;;;;;;;21.99;30.14;97949.59;4906889;29;1004;-79
2021/09/24 06:57:48;;;;;;;;;;;;;;;21.98;30.13;97954.47;4906818;29;1892;-79
2021/09/24 07:00:13;;;;;;;;;;;;;;;21.94;29.84;97958.63;4907283;29;604;-79
2021/09/24 07:02:39;;;;;;;;;;;;;;;22.10;29.76;97961.41;4905876;29;930;-79
2021/09/24 07:05:05;;;;;;;;;;;;;;;21.85;29.93;97962.91;4907161;29;882;-79
2021/09/24 07:07:30;;;;;;;;;;;;;;;21.57;30.79;97975.03;4906898;29;945;-79
2021/09/24 07:09:58;;;;;;;;;;;;;;;22.21;31.23;97969.63;4906778;29;966;-79
2021/09/24 07:12:24;;;;;;;;;;;;;;;22.58;30.56;97971.69;4906921;29;842;-80
2021/09/24 07:14:49;;;;;;;;;;;;;;;22.51;30.79;97969.09;4905576;29;934;-80
2021/09/24 07:17:15;;;;;;;;;;;;;;;22.11;30.84;97968.69;4906909;29;1912;-80
2021/09/24 07:19:41;;;;;;;;;;;;;;;22.23;30.49;97965.09;4906847;29;640;-80
2021/09/24 07:22:07;;;;;;;;;;;;;;;21.91;30.80;97959.53;4906457;29;1098;-79
2021/09/24 07:24:32;;;;;;;;;;;;;;;22.01;30.58;97953.53;4906455;29;901;-79
2021/09/24 07:26:58;;;;;;;;;;;;;;;22.06;30.56;97960.69;4906496;29;1787;-79
2021/09/24 07:29:23;;;;;;;;;;;;;;;21.99;30.86;97947.53;4906675;29;696;-79
2021/09/24 07:35:15;;;;;;;;;;;;;;;22.06;30.78;97936.00;4906297;29;1266;-79
2021/09/24 07:37:40;;;;;;;;;;;;;;;21.96;30.87;97950.47;4905719;29;2002;-80
2021/09/24 07:40:06;;;;;;;;;;;;;;;21.96;30.94;97944.81;4906110;29;907;-79
2021/09/24 07:42:32;;;;;;;;;;;;;;;22.04;30.45;97943.38;4905796;29;1313;-80
2021/09/24 07:44:57;;;;;;;;;;;;;;;21.81;30.66;97941.59;4906357;29;649;-79
2021/09/24 07:47:23;;;;;;;;;;;;;;;21.65;31.08;97948.09;4906181;29;1294;-79
2021/09/24 07:49:48;;;;;;;;;;;;;;;21.79;30.46;97949.75;4906446;29;800;-79
2021/09/24 07:52:14;;;;;;;;;;;;;;;21.73;30.35;97966.50;4905361;29;1317;-79
2021/09/24 07:54:39;;;;;;;;;;;;;;;21.76;30.62;97971.28;4886528;29;1148;-80
2021/09/24 07:57:05;;;;;;;;;;;;;;;22.02;31.01;97960.00;4887339;29;1903;-79
2021/09/24 07:59:30;;;;;;;;;;;;;;;22.36;30.65;97963.06;4887512;29;680;-79
2021/09/24 08:01:56;;;;;;;;;;;;;;;22.44;30.87;97954.38;4887468;29;724;-79
2021/09/24 08:04:21;;;;;;;;;;;;;;;22.38;30.70;97942.75;4898585;29;1361;-79
2021/09/24 08:06:46;;;;;;;;;;;;;;;22.18;30.75;97948.66;4905602;29;925;-79
2021/09/24 08:09:12;;;;;;;;;;;;;;;21.90;31.05;97943.78;4905810;29;923;-79
2021/09/24 08:11:37;;;;;;;;;;;;;;;21.81;31.17;97948.06;4906111;29;1034;-80
2021/09/24 08:14:03;;;;;;;;;;;;;;;21.91;30.86;97948.19;4905805;29;1380;-80
2021/09/24 08:16:29;;;;;;;;;;;;;;;21.91;30.78;97942.53;4906201;29;765;-79
2021/09/24 08:18:54;;;;;;;;;;;;;;;21.80;30.70;97926.63;4905744;29;1969;-80
2021/09/24 08:21:21;;;;;;;;;;;;;;;21.79;30.59;97933.53;4905359;29;998;-79
2021/09/24 08:23:47;;;;;;;;;;;;;;;21.82;30.42;97929.81;4905682;29;881;-79
2021/09/24 08:26:12;;;;;;;;;;;;;;;21.78;30.60;97923.47;4905530;29;1345;-79
2021/09/24 08:28:38;;;;;;;;;;;;;;;21.69;30.32;97920.47;4905649;29;624;-79
2021/09/24 08:31:03;;;;;;;;;;;;;;;21.81;30.58;97933.09;4905584;29;671;-79
2021/09/24 08:33:29;;;;;;;;;;;;;;;22.32;30.68;97927.56;4905449;29;1388;-80
2021/09/24 08:35:55;;;;;;;;;;;;;;;22.47;30.47;97919.41;4905091;29;1409;-79
2021/09/24 08:38:20;;;;;;;;;;;;;;;22.39;30.39;97932.25;4904320;29;1917;-79
2021/09/24 08:40:45;;;;;;;;;;;;;;;22.12;30.46;97913.59;4904869;29;928;-79
2021/09/24 08:43:11;;;;;;;;;;;;;;;21.94;30.48;97907.66;4905116;29;1417;-79
2021/09/24 08:45:37;;;;;;;;;;;;;;;21.93;30.52;97908.91;4905268;29;1514;-80
2021/09/24 08:48:05;;;;;;;;;;;;;;;21.91;30.07;97908.53;4905071;29;696;-79
2021/09/24 08:50:32;;;;;;;;;;;;;;;21.82;30.37;97910.00;4905206;29;931;-79
2021/09/24 08:52:58;;;;;;;;;;;;;;;21.78;30.46;97908.50;4904881;29;930;-79
2021/09/24 08:55:23;;;;;;;;;;;;;;;21.75;30.08;97907.34;4904692;29;1361;-79
2021/09/24 08:57:49;;;;;;;;;;;;;;;21.70;30.45;97895.78;4904186;29;1915;-79
2021/09/24 09:00:14;;;;;;;;;;;;;;;21.69;30.16;97886.50;4904457;29;625;-79
2021/09/24 09:02:59;;;;;;;;;;;;;;;21.73;30.07;97904.19;4904466;29;660;-79
2021/09/24 09:05:25;;;;;;;;;;;;;;;22.19;30.38;97890.72;4904617;29;1353;-79
2021/09/24 09:07:50;;;;;;;;;;;;;;;22.40;30.10;97889.25;4904694;29;880;-79
2021/09/24 09:10:16;;;;;;;;;;;;;;;22.51;29.48;97892.53;4904114;29;2313;-79
2021/09/24 09:12:41;;;;;;;;;;;;;;;22.19;30.12;97867.25;4904970;29;660;-79
2021/09/24 09:15:09;;;;;;;;;;;;;;;21.97;30.15;97861.44;4904033;29;1381;-79
2021/09/24 09:17:47;;;;;;;;;;;;;;;21.79;30.04;97870.44;4904817;29;1974;-80
2021/09/24 09:20:15;;;;;;;;;;;;;;;21.90;30.03;97873.75;4904039;29;994;-79
2021/09/24 09:22:41;;;;;;;;;;;;;;;21.85;30.16;97866.59;4904411;29;914;-79
2021/09/24 09:25:21;;;;;;;;;;;;;;;21.91;29.96;97857.53;4904677;29;1352;-80
2021/09/24 09:27:47;;;;;;;;;;;;;;;21.80;29.89;97867.16;4903942;29;1350;-79
2021/09/24 09:30:13;;;;;;;;;;;;;;;21.72;30.22;97860.13;4904829;29;647;-79
2021/09/24 09:32:39;;;;;;;;;;;;;;;21.82;30.08;97856.19;4904812;29;567;-79
2021/09/24 09:35:05;;;;;;;;;;;;;;;21.73;29.85;97847.56;4903863;29;1065;-79
2021/09/24 09:37:31;;;;;;;;;;;;;;;22.06;30.06;97836.03;4870640;29;1973;-79
2021/09/24 09:40:06;;;;;;;;;;;;;;;22.27;30.05;97821.22;4885243;29;1098;-80
2021/09/24 09:42:36;;;;;;;;;;;;;;;22.49;29.48;97812.03;4886099;29;665;-80
2021/09/24 09:45:03;;;;;;;;;;;;;;;22.07;30.19;97812.13;4885994;29;645;-80
2021/09/24 09:47:29;;;;;;;;;;;;;;;22.01;29.78;97823.22;4899361;29;1472;-79
2021/09/24 09:50:08;;;;;;;;;;;;;;;21.98;29.74;97820.50;4904360;29;939;-80
2021/09/24 09:52:34;;;;;;;;;;;;;;;21.81;29.66;97814.94;4904202;29;837;-79
2021/09/24 09:55:02;;;;;;;;;;;;;;;21.79;29.83;97811.75;4903893;29;1332;-79
2021/09/24 09:57:28;;;;;;;;;;;;;;;21.70;29.98;97817.28;4904115;29;1903;-79
2021/09/24 09:59:54;;;;;;;;;;;;;;;21.85;29.91;97804.28;4907978;29;812;-80
2021/09/24 10:02:31;;;;;;;;;;;;;;;21.73;29.74;97802.25;4907579;29;609;-79
2021/09/24 10:04:58;;;;;;;;;;;;;;;21.95;30.15;97796.69;4907947;29;959;-79
2021/09/24 10:07:23;;;;;;;;;;;;;;;22.32;29.71;97797.97;4906992;29;1382;-80
2021/09/24 10:10:06;;;;;;;;;;;;;;;22.53;29.01;97784.34;4907995;29;856;-79
2021/09/24 10:12:31;;;;;;;;;;;;;;;22.10;29.63;97791.38;4908167;29;1442;-79
2021/09/24 10:14:56;;;;;;;;;;;;;;;22.01;29.85;97791.25;4926824;29;721;-79
2021/09/24 10:17:22;;;;;;;;;;;;;;;22.00;29.44;97784.00;4926820;29;1962;-80
2021/09/24 10:19:49;;;;;;;;;;;;;;;21.82;29.65;97776.88;4907085;29;1490;-79
2021/09/24 10:22:14;;;;;;;;;;;;;;;21.69;29.89;97773.22;4907617;29;965;-79
2021/09/24 10:24:40;;;;;;;;;;;;;;;21.85;29.49;97763.84;4907752;29;840;-79
2021/09/24 10:27:05;;;;;;;;;;;;;;;21.70;30.04;97769.16;4907867;29;711;-79
2021/09/24 10:29:32;;;;;;;;;;;;;;;21.76;29.68;97761.69;4906850;29;1405;-79
2021/09/24 10:32:20;;;;;;;;;;;;;;;21.70;29.78;97745.69;4907087;29;675;-79
2021/09/24 10:34:55;;;;;;;;;;;;;;;22.14;29.74;97746.75;4904974;29;936;-80
2021/09/24 10:37:21;;;;;;;;;;;;;;;22.43;29.30;97757.94;4907435;29;1911;-80
2021/09/24 10:39:47;;;;;;;;;;;;;;;22.33;29.30;97742.88;4907460;29;1369;-80
2021/09/24 10:42:43;;;;;;;;;;;;;;;22.04;29.70;97736.53;4907702;29;1345;-80
2021/09/24 10:45:08;;;;;;;;;;;;;;;21.88;29.77;97733.84;4902760;29;1275;-80
2021/09/24 10:47:46;;;;;;;;;;;;;;;21.97;29.39;97736.78;4907687;29;649;-79
2021/09/24 10:50:33;;;;;;;;;;;;;;;21.63;30.18;97735.41;4907038;29;1361;-80
2021/09/24 10:53:21;;;;;;;;;;;;;;;21.69;29.92;97721.47;4907060;29;845;-80
2021/09/24 10:55:47;;;;;;;;;;;;;;;21.74;30.00;97713.19;4907297;29;1045;-79
2021/09/24 10:58:13;;;;;;;;;;;;;;;21.75;29.74;97711.16;4907300;29;1981;-80
2021/09/24 11:00:44;;;;;;;;;;;;;;;21.81;29.71;97712.16;4907028;29;1415;-79
2021/09/24 11:03:16;;;;;;;;;;;;;;;22.16;29.67;97704.59;4907204;29;655;-79
2021/09/24 11:05:54;;;;;;;;;;;;;;;22.38;29.22;97704.63;4907293;29;1028;-79
2021/09/24 11:08:31;;;;;;;;;;;;;;;22.23;29.11;97714.91;4906716;29;919;-79
2021/09/24 11:11:22;;;;;;;;;;;;;;;22.08;29.27;97703.22;4906412;29;1373;-79
2021/09/24 11:13:52;;;;;;;;;;;;;;;21.82;29.61;97697.56;4906498;29;656;-80
2021/09/24 11:16:18;;;;;;;;;;;;;;;21.86;29.65;97705.94;4906780;29;854;-79
2021/09/24 11:18:57;;;;;;;;;;;;;;;21.81;29.41;97698.00;4905555;29;1968;-79
2021/09/24 11:21:38;;;;;;;;;;;;;;;21.84;29.67;97689.41;4905016;29;1342;-79
2021/09/24 11:24:03;;;;;;;;;;;;;;;21.74;29.82;97679.22;4906468;29;930;-79
2021/09/24 11:26:30;;;;;;;;;;;;;;;21.75;30.07;97680.00;4906663;29;1384;-79
2021/09/24 11:29:15;;;;;;;;;;;;;;;22.21;29.31;97684.16;4906846;29;746;-79
2021/09/24 11:31:53;;;;;;;;;;;;;;;22.54;28.60;97673.31;4906387;29;1349;-79
2021/09/24 11:34:41;;;;;;;;;;;;;;;22.10;29.15;97667.53;4906696;29;701;-79
2021/09/24 11:37:07;;;;;;;;;;;;;;;21.90;29.70;97657.69;4906325;29;1911;-79
2021/09/24 11:39:33;;;;;;;;;;;;;;;21.88;29.55;97651.69;4906201;29;936;-80
2021/09/24 11:42:02;;;;;;;;;;;;;;;21.83;29.64;97659.50;4906542;29;656;-79
2021/09/24 11:44:28;;;;;;;;;;;;;;;21.82;29.36;97646.59;4906278;29;1415;-79
2021/09/24 11:46:55;;;;;;;;;;;;;;;21.65;29.64;97647.94;4906550;29;620;-79
2021/09/24 11:49:22;;;;;;;;;;;;;;;21.76;29.46;97654.09;4906353;29;684;-80
2021/09/24 11:51:57;;;;;;;;;;;;;;;21.82;29.38;97652.25;4905905;29;946;-80
2021/09/24 11:54:22;;;;;;;;;;;;;;;21.67;29.70;97650.34;4905557;29;1369;-80
2021/09/24 11:56:48;;;;;;;;;;;;;;;22.05;29.68;97633.28;4906223;29;1013;-79
2021/09/24 11:59:14;;;;;;;;;;;;;;;22.40;29.22;97639.78;4906214;29;1907;-80
2021/09/24 12:01:43;;;;;;;;;;;;;;;22.13;29.15;97643.16;4906103;29;684;-80
2021/09/24 12:04:09;;;;;;;;;;;;;;;21.97;29.26;97640.47;4904677;29;1385;-80
2021/09/24 12:06:35;;;;;;;;;;;;;;;21.92;29.67;97641.03;4905434;29;1337;-79
2021/09/24 12:09:01;;;;;;;;;;;;;;;21.92;29.39;97635.38;4905221;29;1258;-79
2021/09/24 12:11:29;;;;;;;;;;;;;;;21.85;29.33;97628.69;4904611;29;996;-80
2021/09/24 12:13:58;;;;;;;;;;;;;;;21.71;29.45;97623.50;4905463;29;1337;-79
2021/09/24 12:16:24;;;;;;;;;;;;;;;21.66;29.58;97621.25;4904725;29;1299;-79
2021/09/24 12:18:57;;;;;;;;;;;;;;;21.79;29.30;97616.34;4905481;29;1970;-79
2021/09/24 12:21:30;;;;;;;;;;;;;;;21.85;29.58;97617.34;4904438;29;1266;-78
2021/09/24 12:23:55;;;;;;;;;;;;;;;21.68;29.82;97610.25;4904407;29;1331;-80
2021/09/24 12:26:34;;;;;;;;;;;;;;;22.06;29.65;97603.69;4905099;29;1230;-79
2021/09/24 12:29:01;;;;;;;;;;;;;;;22.39;28.84;97603.41;4904670;29;1637;-79
2021/09/24 12:31:36;;;;;;;;;;;;;;;22.24;28.88;97609.59;4905116;29;1274;-78
2021/09/24 12:34:02;;;;;;;;;;;;;;;22.01;29.50;97587.28;4905436;29;1337;-79
2021/09/24 12:36:28;;;;;;;;;;;;;;;21.88;29.54;97575.22;4904332;29;920;-78
2021/09/24 12:39:09;;;;;;;;;;;;;;;21.84;29.81;97576.13;4904380;29;1906;-78
2021/09/24 12:41:38;;;;;;;;;;;;;;;21.76;29.54;97569.13;4905725;29;749;-78
2021/09/24 12:44:04;;;;;;;;;;;;;;;21.79;29.45;97556.09;4905622;29;629;-78
2021/09/24 12:46:31;;;;;;;;;;;;;;;21.74;29.61;97551.78;4905745;29;725;-78
2021/09/24 12:48:57;;;;;;;;;;;;;;;21.89;29.34;97556.97;4904570;29;1389;-78
2021/09/24 12:51:22;;;;;;;;;;;;;;;21.71;29.64;97544.22;4904962;29;1043;-78
2021/09/24 12:53:48;;;;;;;;;;;;;;;21.71;29.58;97544.22;4904776;29;892;-78
2021/09/24 12:56:14;;;;;;;;;;;;;;;22.09;29.54;97552.59;4905088;29;981;-78
2021/09/24 12:58:41;;;;;;;;;;;;;;;22.49;28.74;97551.19;4905298;29;1910;-78
2021/09/24 13:01:06;;;;;;;;;;;;;;;22.49;28.45;97551.19;4905547;29;695;-78
2021/09/24 13:03:32;;;;;;;;;;;;;;;22.01;29.06;97551.25;4905031;29;708;-78